Terminal Aerodrome Forecast
Issued by NWS

Home | Current Version | Previous Version | Text Only | Print | Product List | Glossary On
Versions: 1 2 3 4 5 6 7 8 9 10 11 12 13 14 15 16 17 18 19 20 21 22 23 24 25
615
FTUS41 KBUF 091120
TAFJHW
TAF
KJHW 091120Z 0912/1012 30010KT 2SM -SN OVC012
     FM091700 30011KT 3SM -SN OVC025
     FM092000 30010KT 1/2SM SN OVC012
     FM100000 29009KT 3SM -SN OVC015
      AMD LTD TO CLD VIS AND WIND=

USA.gov is the U.S. government's official web portal to all federal, state and local government web resources and services.